Time;durP1;ratioP1;P1;durP2;ratioP2;P2;SDS_P1;SDS_P2;PMS_P1;PMS_P2;Temp;Humidity;BMP_temperature;BMP_pressure;BME280_temperature;BME280_humidity;BME280_pressure;Samples;Min_cycle;Max_cycle;Signal;HPM_P1;HPM_P2
2023/07/10 00:01:12;;;;;;;0.40;0.30;;;;;;;14.95;62.98;102305.75;5003418;28;20056;-71
2023/07/10 00:03:40;;;;;;;2.97;0.28;;;;;;;14.93;62.91;102302.25;5001184;28;20100;-71
2023/07/10 00:06:11;;;;;;;0.60;0.30;;;;;;;14.89;63.02;102305.81;5005240;28;20054;-71
2023/07/10 00:08:38;;;;;;;0.47;0.30;;;;;;;14.87;62.93;102302.31;4997539;28;20054;-71
2023/07/10 00:11:06;;;;;;;0.30;0.25;;;;;;;14.84;62.90;102305.00;5008148;28;20853;-71
2023/07/10 00:13:33;;;;;;;0.40;0.20;;;;;;;14.82;63.11;102304.13;5005708;28;20054;-70
2023/07/10 00:16:01;;;;;;;2.88;0.30;;;;;;;14.79;63.01;102312.06;5005907;28;20409;-74
2023/07/10 00:18:28;;;;;;;0.20;0.20;;;;;;;14.77;63.20;102313.84;5004855;28;20056;-70
2023/07/10 00:20:55;;;;;;;2.30;0.20;;;;;;;14.75;63.29;102316.50;5007019;28;20138;-73
2023/07/10 00:23:22;;;;;;;1.05;0.30;;;;;;;14.71;63.25;102311.28;5002442;28;20061;-73
2023/07/10 00:25:49;;;;;;;0.52;0.20;;;;;;;14.69;63.15;102313.94;5006004;28;20041;-73
2023/07/10 00:28:17;;;;;;;0.52;0.20;;;;;;;14.66;63.34;102310.44;5004197;28;21178;-73
2023/07/10 00:30:46;;;;;;;0.28;0.20;;;;;;;14.64;63.25;102314.88;5005995;28;20054;-73
2023/07/10 00:33:15;;;;;;;1.08;0.60;;;;;;;14.60;63.34;102309.66;5004378;28;20130;-73
2023/07/10 00:35:43;;;;;;;0.20;0.20;;;;;;;14.58;63.41;102315.81;5006152;28;20049;-73
2023/07/10 00:38:20;;;;;;;2.10;0.20;;;;;;;14.55;63.38;102307.97;5005590;28;20594;-72
2023/07/10 00:40:48;;;;;;;1.42;0.30;;;;;;;14.52;63.48;102313.25;5006518;28;20058;-73
2023/07/10 00:43:26;;;;;;;0.38;0.30;;;;;;;14.49;63.55;102318.50;5006789;28;20049;-73
2023/07/10 00:45:54;;;;;;;0.40;0.30;;;;;;;14.44;63.65;102318.53;5001344;28;20069;-73
2023/07/10 00:48:33;;;;;;;0.63;0.25;;;;;;;14.42;63.70;102319.44;5007180;28;20556;-72
2023/07/10 00:51:05;;;;;;;0.82;0.30;;;;;;;14.39;63.71;102320.34;5004079;28;20065;-72
2023/07/10 00:53:37;;;;;;;0.30;0.20;;;;;;;14.37;63.91;102324.75;5005776;28;20219;-72
2023/07/10 00:56:08;;;;;;;0.60;0.25;;;;;;;14.34;63.80;102319.50;5001537;28;20512;-73
2023/07/10 00:58:39;;;;;;;0.57;0.20;;;;;;;14.33;63.90;102320.41;5003497;28;20046;-72
2023/07/10 01:01:08;;;;;;;0.30;0.20;;;;;;;14.30;64.05;102315.19;5000762;28;20072;-72
2023/07/10 01:03:39;;;;;;;0.50;0.20;;;;;;;14.28;64.41;102316.94;5005732;28;20049;-73
2023/07/10 01:06:10;;;;;;;0.40;0.30;;;;;;;14.25;64.29;102312.59;5006522;28;20069;-72
2023/07/10 01:08:39;;;;;;;0.60;0.40;;;;;;;14.22;64.30;102312.63;5003379;28;20046;-72
2023/07/10 01:11:06;;;;;;;1.58;0.30;;;;;;;14.20;64.34;102303.88;5007671;28;20046;-72
2023/07/10 01:13:34;;;;;;;3.28;0.35;;;;;;;14.18;64.46;102301.25;5003709;28;20132;-73
2023/07/10 01:16:01;;;;;;;1.60;0.30;;;;;;;14.17;64.38;102304.78;5002255;28;20050;-72
2023/07/10 01:18:28;;;;;;;0.88;0.20;;;;;;;14.16;64.65;102303.03;5001294;28;20054;-72
2023/07/10 01:21:13;;;;;;;0.63;0.30;;;;;;;14.14;64.51;102310.06;5006443;28;20053;-72
2023/07/10 01:23:40;;;;;;;11.20;2.28;;;;;;;14.12;64.69;102309.22;5002292;28;20056;-72
2023/07/10 01:26:08;;;;;;;0.40;0.30;;;;;;;14.10;64.68;102300.47;5005245;28;20054;-72
2023/07/10 01:28:35;;;;;;;0.82;0.30;;;;;;;14.10;64.73;102302.22;5004516;28;20054;-73
2023/07/10 01:31:05;;;;;;;0.68;0.20;;;;;;;14.08;64.90;102298.72;5004938;28;20050;-72
2023/07/10 01:33:37;;;;;;;0.30;0.30;;;;;;;14.06;65.09;102304.00;5002836;28;20092;-72
2023/07/10 01:36:06;;;;;;;1.52;0.30;;;;;;;14.04;64.96;102295.25;4997065;28;20707;-72
2023/07/10 01:38:39;;;;;;;0.35;0.30;;;;;;;14.04;65.13;102297.03;5005892;28;20517;-74
2023/07/10 01:41:21;;;;;;;1.60;0.30;;;;;;;13.95;65.15;102282.22;4999951;28;20037;-73
2023/07/10 01:43:48;;;;;;;1.77;0.32;;;;;;;14.01;65.30;102297.06;5003110;28;20740;-72
2023/07/10 01:46:23;;;;;;;0.57;0.30;;;;;;;13.99;65.18;102299.69;5003632;28;20429;-72
2023/07/10 01:48:54;;;;;;;2.35;0.30;;;;;;;13.98;65.35;102294.44;5004666;28;20703;-72
2023/07/10 01:51:22;;;;;;;0.82;0.30;;;;;;;13.96;65.15;102299.72;5001529;28;20045;-72
2023/07/10 01:53:51;;;;;;;2.80;0.30;;;;;;;13.93;65.19;102294.47;5000360;28;20042;-73
2023/07/10 01:56:21;;;;;;;0.73;0.38;;;;;;;13.93;65.28;102289.22;5003181;28;20034;-72
2023/07/10 01:58:48;;;;;;;0.80;0.20;;;;;;;13.89;65.30;102287.53;5000501;28;20571;-72
2023/07/10 02:01:15;;;;;;;0.68;0.30;;;;;;;13.89;65.17;102285.75;5003391;28;20049;-72
2023/07/10 02:03:42;;;;;;;0.40;0.30;;;;;;;13.88;65.38;102291.00;4999497;28;20053;-72
2023/07/10 02:06:09;;;;;;;0.30;0.30;;;;;;;13.86;65.22;102295.41;5002461;28;20410;-73
2023/07/10 02:08:35;;;;;;;0.80;0.35;;;;;;;13.80;65.45;102285.81;5002528;28;20054;-72
2023/07/10 02:11:04;;;;;;;0.85;0.30;;;;;;;13.84;65.39;102289.31;5004083;28;20053;-73
2023/07/10 02:13:31;;;;;;;0.50;0.30;;;;;;;13.82;65.46;102280.56;5001165;28;20045;-72
2023/07/10 02:16:02;;;;;;;0.20;0.20;;;;;;;13.81;65.55;102297.22;5001837;28;20038;-72
2023/07/10 02:18:29;;;;;;;1.02;0.30;;;;;;;13.78;65.63;102294.59;5002038;28;20904;-72
2023/07/10 02:20:56;;;;;;;0.40;0.30;;;;;;;13.78;65.62;102289.34;5002042;28;20687;-72
2023/07/10 02:23:24;;;;;;;2.20;0.30;;;;;;;13.72;65.31;102288.50;4999777;28;20057;-72
2023/07/10 02:25:50;;;;;;;0.32;0.20;;;;;;;13.75;65.60;102300.75;5004962;28;20415;-72
2023/07/10 02:28:19;;;;;;;0.25;0.20;;;;;;;13.73;65.63;102287.63;4997563;28;20068;-72
2023/07/10 02:30:46;;;;;;;1.52;0.20;;;;;;;13.72;65.64;102285.88;5002180;28;20046;-72
2023/07/10 02:33:13;;;;;;;0.40;0.30;;;;;;;13.65;65.84;102278.91;5002620;28;20042;-72
2023/07/10 02:35:40;;;;;;;1.27;0.40;;;;;;;13.71;65.95;102280.63;5003781;28;20052;-72
2023/07/10 02:38:07;;;;;;;0.98;0.40;;;;;;;13.67;66.17;102287.66;5002184;28;20125;-72
2023/07/10 02:40:34;;;;;;;1.67;0.30;;;;;;;13.67;66.11;102286.81;5003714;28;20057;-71
2023/07/10 02:43:01;;;;;;;0.45;0.30;;;;;;;13.66;66.04;102287.66;4998636;28;20406;-71
2023/07/10 02:45:29;;;;;;;0.40;0.30;;;;;;;13.65;66.19;102289.44;5005722;28;20057;-72
2023/07/10 02:47:56;;;;;;;0.73;0.30;;;;;;;13.63;66.18;102285.06;5002193;28;20502;-71
2023/07/10 02:50:23;;;;;;;1.00;0.20;;;;;;;13.63;66.35;102288.59;5004363;28;20052;-71
2023/07/10 02:52:50;;;;;;;0.20;0.20;;;;;;;13.62;66.35;102286.81;4999808;28;20479;-71
2023/07/10 02:55:17;;;;;;;1.20;0.30;;;;;;;13.63;66.40;102282.44;4997121;28;20089;-71
2023/07/10 02:57:44;;;;;;;0.40;0.20;;;;;;;13.62;66.41;102273.69;4985317;28;21937;-76
2023/07/10 03:00:11;;;;;;;6.97;0.30;;;;;;;13.61;66.51;102266.72;5004533;28;20049;-76
2023/07/10 03:02:40;;;;;;;0.38;0.30;;;;;;;13.61;66.66;102261.47;4998582;28;20054;-76
2023/07/10 03:05:08;;;;;;;0.70;0.30;;;;;;;13.61;66.80;102266.72;5004811;28;20057;-76
2023/07/10 03:07:34;;;;;;;10.18;0.50;;;;;;;13.62;67.03;102260.56;5006823;28;20060;-76
2023/07/10 03:10:02;;;;;;;0.50;0.30;;;;;;;13.62;67.16;102263.19;4998191;28;20056;-77
2023/07/10 03:12:28;;;;;;;0.40;0.40;;;;;;;13.62;67.27;102265.81;5004978;28;20531;-75
2023/07/10 03:14:56;;;;;;;0.50;0.30;;;;;;;13.63;67.49;102262.31;5002368;28;20046;-77
2023/07/10 03:17:23;;;;;;;0.52;0.30;;;;;;;13.64;67.48;102266.69;5004891;28;20042;-76
2023/07/10 03:19:52;;;;;;;0.38;0.25;;;;;;;13.64;67.66;102258.81;5004627;28;20060;-76
2023/07/10 03:22:19;;;;;;;0.32;0.30;;;;;;;13.66;67.76;102256.16;5009199;28;20849;-77
2023/07/10 03:24:46;;;;;;;0.77;0.40;;;;;;;13.66;67.75;102249.19;5006201;28;20056;-75
2023/07/10 03:27:13;;;;;;;1.63;0.30;;;;;;;13.68;68.10;102246.53;5010789;28;20048;-77
2023/07/10 03:29:40;;;;;;;0.30;0.30;;;;;;;13.71;68.36;102254.38;5009295;28;20051;-77
2023/07/10 03:32:08;;;;;;;0.40;0.30;;;;;;;13.72;68.52;102237.75;5006904;28;20513;-76
2023/07/10 03:34:35;;;;;;;0.50;0.40;;;;;;;13.72;68.71;102238.63;5008751;28;20054;-76
2023/07/10 03:37:04;;;;;;;0.47;0.35;;;;;;;13.78;69.21;102236.84;5003208;28;20056;-76
2023/07/10 03:39:31;;;;;;;0.40;0.30;;;;;;;13.80;69.43;102240.28;5009085;28;20050;-75
2023/07/10 03:41:58;;;;;;;0.93;0.30;;;;;;;13.82;69.90;102239.41;5004304;28;20046;-77
2023/07/10 03:44:25;;;;;;;1.38;0.28;;;;;;;13.87;70.03;102229.72;5006284;28;20058;-77
2023/07/10 03:46:52;;;;;;;0.30;0.30;;;;;;;13.90;70.31;102234.09;5002283;28;20042;-76
2023/07/10 03:49:19;;;;;;;0.35;0.30;;;;;;;13.97;70.77;102227.00;5007190;28;20060;-76
2023/07/10 03:51:46;;;;;;;0.50;0.40;;;;;;;14.02;71.04;102227.84;5006267;28;20042;-76
2023/07/10 03:54:15;;;;;;;0.52;0.40;;;;;;;14.06;71.51;102222.56;5008341;28;20045;-76
2023/07/10 03:56:41;;;;;;;0.40;0.40;;;;;;;14.13;71.75;102216.34;5006152;28;20049;-77
2023/07/10 03:59:09;;;;;;;0.93;0.63;;;;;;;14.21;72.01;102225.91;5006666;28;20056;-76
2023/07/10 04:01:37;;;;;;;0.70;0.40;;;;;;;14.29;71.92;102224.94;5002318;28;20064;-76
2023/07/10 04:04:04;;;;;;;2.45;0.55;;;;;;;14.38;72.12;102221.34;5006161;28;20046;-76
2023/07/10 04:06:34;;;;;;;1.05;0.30;;;;;;;14.47;72.16;102218.59;5008216;28;20049;-76
2023/07/10 04:09:00;;;;;;;0.60;0.50;;;;;;;14.56;72.21;102210.63;5006585;28;20504;-76
2023/07/10 04:11:30;;;;;;;4.20;0.88;;;;;;;14.66;72.21;102210.50;5007422;28;20494;-76
2023/07/10 04:13:57;;;;;;;0.50;0.40;;;;;;;14.76;72.14;102214.78;5005486;28;20089;-77
2023/07/10 04:16:26;;;;;;;1.50;0.40;;;;;;;14.85;72.44;102215.50;5004624;28;20058;-76
2023/07/10 04:18:55;;;;;;;0.95;0.40;;;;;;;14.98;72.52;102212.75;5009518;28;20052;-76
2023/07/10 04:21:23;;;;;;;0.75;0.40;;;;;;;15.09;72.80;102223.13;5004627;28;20041;-75
2023/07/10 04:23:51;;;;;;;0.85;0.40;;;;;;;15.18;72.71;102221.22;5005484;28;20050;-76
2023/07/10 04:26:20;;;;;;;1.02;0.40;;;;;;;15.28;73.11;102214.94;5002934;28;20065;-77
2023/07/10 04:28:50;;;;;;;0.93;0.50;;;;;;;15.40;72.71;102213.88;5008618;28;20049;-77
2023/07/10 04:31:18;;;;;;;0.43;0.38;;;;;;;15.52;72.78;102218.94;5004223;28;20046;-77
2023/07/10 04:33:46;;;;;;;0.52;0.40;;;;;;;15.65;72.78;102221.38;5005151;28;20590;-76
2023/07/10 04:36:13;;;;;;;3.13;0.40;;;;;;;15.76;72.79;102210.69;5006873;28;20042;-77
2023/07/10 04:38:40;;;;;;;1.60;0.40;;;;;;;15.92;72.50;102214.81;5005762;28;20054;-76
2023/07/10 04:41:11;;;;;;;0.50;0.40;;;;;;;16.05;71.94;102212.78;5007724;28;20045;-76
2023/07/10 04:43:38;;;;;;;1.40;0.30;;;;;;;16.19;71.42;102226.59;5003221;28;20054;-77
2023/07/10 04:46:07;;;;;;;1.65;0.50;;;;;;;16.35;71.71;102220.13;5009737;28;20136;-76
2023/07/10 04:48:35;;;;;;;1.88;0.40;;;;;;;16.50;71.20;102226.00;5002850;28;20516;-78
2023/07/10 04:51:04;;;;;;;1.45;0.30;;;;;;;16.63;71.03;102216.94;5009129;28;20048;-76
2023/07/10 04:53:32;;;;;;;0.63;0.50;;;;;;;16.77;70.61;102220.19;5004156;28;20057;-76
2023/07/10 04:56:01;;;;;;;0.77;0.40;;;;;;;16.91;70.38;102219.03;5005414;28;20052;-78
2023/07/10 04:58:28;;;;;;;0.40;0.30;;;;;;;17.06;70.54;102218.69;5007256;28;20042;-76
2023/07/10 05:00:57;;;;;;;1.95;0.20;;;;;;;17.20;70.05;102219.25;5006121;28;20046;-76
2023/07/10 05:03:26;;;;;;;1.33;0.30;;;;;;;17.36;69.39;102213.59;5003768;28;20038;-76
2023/07/10 05:05:54;;;;;;;0.88;0.30;;;;;;;17.51;69.10;102215.88;5005126;28;20494;-77
2023/07/10 05:08:22;;;;;;;1.75;0.30;;;;;;;17.66;68.19;102222.56;5003330;28;20046;-76
2023/07/10 05:10:50;;;;;;;2.38;0.50;;;;;;;17.80;68.02;102219.59;5005429;28;20049;-76
2023/07/10 05:13:18;;;;;;;1.13;0.20;;;;;;;17.93;67.13;102213.06;5000672;28;21546;-76
2023/07/10 05:15:46;;;;;;;1.60;0.20;;;;;;;18.06;66.42;102203.06;5006179;28;20056;-76
2023/07/10 05:18:13;;;;;;;0.60;0.30;;;;;;;18.24;66.63;102212.25;5004174;28;20091;-76
2023/07/10 05:20:44;;;;;;;0.90;0.20;;;;;;;18.40;66.06;102213.56;5005833;28;20418;-76
2023/07/10 05:23:11;;;;;;;0.82;0.30;;;;;;;18.57;65.71;102208.66;5000521;28;20044;-76
2023/07/10 05:25:38;;;;;;;1.88;0.40;;;;;;;18.72;65.44;102209.13;5002483;28;20049;-76
2023/07/10 05:28:06;;;;;;;0.32;0.30;;;;;;;18.86;64.95;102202.53;5005049;28;20050;-77
2023/07/10 05:30:35;;;;;;;3.53;0.30;;;;;;;19.04;63.06;102213.47;5004977;28;20053;-76
2023/07/10 05:33:03;;;;;;;0.30;0.30;;;;;;;19.20;63.08;102213.84;5005215;28;20046;-75
2023/07/10 05:35:30;;;;;;;1.00;0.30;;;;;;;19.37;62.81;102214.19;5002387;28;20054;-75
2023/07/10 05:37:58;;;;;;;0.25;0.20;;;;;;;19.52;62.37;102216.34;5002789;28;20041;-76
2023/07/10 05:40:25;;;;;;;0.20;0.20;;;;;;;19.67;61.10;102216.78;5004996;28;21391;-76
2023/07/10 05:42:52;;;;;;;2.05;0.20;;;;;;;19.80;60.94;102217.22;5004659;28;20052;-75
2023/07/10 05:45:19;;;;;;;0.38;0.30;;;;;;;19.93;60.78;102216.75;5001905;28;20064;-76
2023/07/10 05:47:46;;;;;;;0.50;0.30;;;;;;;20.05;59.73;102214.59;5005347;28;20046;-77
2023/07/10 05:50:13;;;;;;;0.40;0.13;;;;;;;20.18;58.81;102221.22;5002530;28;20603;-76
2023/07/10 05:52:40;;;;;;;0.35;0.30;;;;;;;20.30;57.82;102218.09;5003518;28;20068;-77
2023/07/10 05:55:08;;;;;;;0.30;0.20;;;;;;;20.41;58.27;102201.78;5002533;28;20085;-76
2023/07/10 05:57:35;;;;;;;0.30;0.20;;;;;;;20.50;57.88;102206.75;5007478;28;20050;-77
2023/07/10 06:00:02;;;;;;;0.57;0.20;;;;;;;20.57;57.22;102207.41;5002447;28;20046;-77
2023/07/10 06:02:29;;;;;;;0.20;0.20;;;;;;;20.64;56.58;102208.94;5004969;28;20064;-77
2023/07/10 06:04:56;;;;;;;0.20;0.20;;;;;;;20.71;56.23;102218.38;5004117;28;20054;-77
2023/07/10 06:07:23;;;;;;;1.38;0.20;;;;;;;20.76;55.49;102215.56;5006905;28;20048;-76
2023/07/10 06:09:50;;;;;;;1.52;0.40;;;;;;;20.82;55.75;102207.34;5001477;28;20041;-76
2023/07/10 06:12:18;;;;;;;1.25;0.25;;;;;;;20.85;55.44;102210.75;5007863;28;20052;-76
2023/07/10 06:14:45;;;;;;;0.98;0.28;;;;;;;20.89;55.46;102209.72;5004626;28;20417;-77
2023/07/10 06:17:12;;;;;;;1.70;0.30;;;;;;;20.92;55.29;102206.09;5003871;28;20038;-76
2023/07/10 06:19:39;;;;;;;0.75;0.30;;;;;;;20.93;54.79;102205.16;5000664;28;20052;-76
2023/07/10 06:22:07;;;;;;;0.38;0.20;;;;;;;20.94;54.32;102206.88;5005253;28;20052;-76
2023/07/10 06:24:34;;;;;;;0.30;0.20;;;;;;;20.93;54.01;102218.44;5001271;28;20050;-76
2023/07/10 06:27:02;;;;;;;0.20;0.20;;;;;;;20.91;53.03;102212.31;5006644;28;20049;-76
2023/07/10 06:29:31;;;;;;;2.17;0.30;;;;;;;20.92;53.15;102213.16;5001514;28;20576;-78
2023/07/10 06:31:58;;;;;;;0.30;0.30;;;;;;;20.91;52.48;102211.44;5003555;28;20042;-77
2023/07/10 06:34:25;;;;;;;0.30;0.30;;;;;;;20.89;52.47;102215.03;4999593;28;20453;-76
2023/07/10 06:36:52;;;;;;;0.60;0.20;;;;;;;20.89;52.69;102209.72;5005849;28;20046;-77
2023/07/10 06:39:19;;;;;;;0.30;0.30;;;;;;;20.89;52.50;102211.50;5005584;28;20050;-77
2023/07/10 06:41:46;;;;;;;1.00;0.20;;;;;;;20.91;52.38;102208.78;4997192;28;20047;-76
2023/07/10 06:44:13;;;;;;;1.65;0.30;;;;;;;20.89;52.09;102207.06;5001084;28;20042;-76
2023/07/10 06:46:41;;;;;;;0.20;0.20;;;;;;;20.91;51.31;102201.66;5001840;28;20482;-77
2023/07/10 06:49:08;;;;;;;0.30;0.30;;;;;;;20.91;51.55;102200.81;5007407;28;20042;-76
2023/07/10 06:51:36;;;;;;;1.05;0.30;;;;;;;20.96;51.37;102199.72;5000073;28;20054;-76
2023/07/10 06:54:03;;;;;;;1.13;0.20;;;;;;;21.00;50.82;102195.13;5004794;28;20566;-76
2023/07/10 06:56:30;;;;;;;0.20;0.20;;;;;;;21.03;50.54;102195.91;5002399;28;20506;-76
2023/07/10 06:58:57;;;;;;;2.13;0.40;;;;;;;21.08;50.47;102193.03;5005923;28;20119;-77
2023/07/10 07:01:24;;;;;;;0.35;0.20;;;;;;;21.14;50.15;102187.47;4994865;28;20054;-77
2023/07/10 07:03:52;;;;;;;0.28;0.20;;;;;;;21.20;50.89;102187.22;5008476;28;20046;-76
2023/07/10 07:06:19;;;;;;;0.22;0.20;;;;;;;21.28;50.53;102189.56;5001058;28;20540;-76
2023/07/10 07:08:48;;;;;;;1.10;0.30;;;;;;;21.34;50.92;102190.22;5008228;28;20054;-76
2023/07/10 07:11:15;;;;;;;0.20;0.20;;;;;;;21.43;50.65;102188.09;5003968;28;20052;-77
2023/07/10 07:13:41;;;;;;;0.20;0.20;;;;;;;21.52;50.19;102187.75;5005833;28;20046;-76
2023/07/10 07:16:08;;;;;;;0.60;0.20;;;;;;;21.61;50.38;102184.69;5002228;28;20606;-76
2023/07/10 07:18:35;;;;;;;1.75;0.25;;;;;;;21.71;49.94;102187.81;5008851;28;20054;-75
2023/07/10 07:21:05;;;;;;;0.35;0.30;;;;;;;21.82;50.21;102184.69;5007898;28;20046;-76
2023/07/10 07:23:31;;;;;;;0.30;0.28;;;;;;;21.94;50.08;102189.47;5010418;28;20134;-77
2023/07/10 07:25:58;;;;;;;0.50;0.30;;;;;;;22.03;49.98;102183.78;5003907;28;20503;-77
2023/07/10 07:28:26;;;;;;;0.60;0.30;;;;;;;22.07;49.66;102169.38;5005750;28;20057;-76
2023/07/10 07:30:53;;;;;;;0.80;0.30;;;;;;;22.21;49.76;102177.66;5002383;28;20052;-77
2023/07/10 07:33:21;;;;;;;0.80;0.40;;;;;;;22.30;49.64;102179.03;5005631;28;20413;-76
2023/07/10 07:35:49;;;;;;;0.30;0.20;;;;;;;22.37;48.97;102179.59;5004414;28;20077;-76
2023/07/10 07:38:17;;;;;;;6.82;0.30;;;;;;;22.47;48.83;102177.41;5006347;28;20133;-76
2023/07/10 07:40:45;;;;;;;0.35;0.30;;;;;;;22.55;48.42;102180.56;5004159;28;20498;-76
2023/07/10 07:43:12;;;;;;;0.52;0.30;;;;;;;22.65;49.12;102174.75;5007410;28;20049;-76
2023/07/10 07:45:38;;;;;;;2.33;0.30;;;;;;;22.74;47.55;102183.22;5007595;28;20042;-76
2023/07/10 07:48:06;;;;;;;0.63;0.20;;;;;;;22.80;46.94;102178.47;5008196;28;20491;-76
2023/07/10 07:50:33;;;;;;;2.75;0.30;;;;;;;22.86;46.88;102170.19;5004181;28;20048;-77
2023/07/10 07:53:00;;;;;;;0.40;0.30;;;;;;;22.97;47.34;102177.72;5004282;28;20057;-76
2023/07/10 07:55:28;;;;;;;0.30;0.25;;;;;;;23.00;47.32;102169.56;5004062;28;20054;-76
2023/07/10 07:57:55;;;;;;;0.45;0.30;;;;;;;23.08;47.59;102179.81;5002040;28;20050;-77
2023/07/10 08:00:22;;;;;;;0.55;0.35;;;;;;;23.14;46.86;102168.88;5002215;28;20085;-77
2023/07/10 08:02:49;;;;;;;0.32;0.30;;;;;;;23.20;46.45;102162.41;5005767;28;20061;-76
2023/07/10 08:05:16;;;;;;;0.30;0.30;;;;;;;23.25;46.23;102163.00;5005531;28;20461;-76
2023/07/10 08:07:43;;;;;;;0.77;0.30;;;;;;;23.30;46.19;102168.97;5007433;28;20046;-76
2023/07/10 08:10:10;;;;;;;2.58;0.30;;;;;;;23.33;46.47;102163.47;5005076;28;20041;-77
2023/07/10 08:12:38;;;;;;;0.40;0.40;;;;;;;23.38;46.33;102166.78;5001293;28;20466;-77
2023/07/10 08:15:06;;;;;;;0.45;0.28;;;;;;;23.43;45.77;102158.56;5006431;28;20045;-77
2023/07/10 08:17:33;;;;;;;0.93;0.30;;;;;;;23.47;46.85;102166.31;5000158;28;20046;-76
2023/07/10 08:20:00;;;;;;;0.25;0.25;;;;;;;23.48;46.57;102170.72;5006359;28;20869;-76
2023/07/10 08:22:27;;;;;;;1.67;0.30;;;;;;;23.52;46.11;102169.63;5000428;28;20058;-75
2023/07/10 08:24:54;;;;;;;0.50;0.30;;;;;;;23.55;45.94;102166.78;5006826;28;20146;-77
2023/07/10 08:27:21;;;;;;;0.70;0.40;;;;;;;23.56;45.60;102168.53;5003190;28;20041;-76
2023/07/10 08:29:49;;;;;;;1.17;1.08;;;;;;;23.55;45.80;102173.94;5005312;28;20050;-78
2023/07/10 08:32:16;;;;;;;1.20;0.40;;;;;;;23.54;45.61;102173.09;5002150;28;20072;-74
2023/07/10 08:34:43;;;;;;;0.50;0.40;;;;;;;23.54;45.78;102167.75;5004711;28;20050;-73
2023/07/10 08:37:10;;;;;;;0.40;0.30;;;;;;;23.54;46.11;102159.75;5001665;28;20048;-74
2023/07/10 08:39:37;;;;;;;0.30;0.30;;;;;;;23.57;46.39;102156.06;5005113;28;20053;-73
2023/07/10 08:42:15;;;;;;;0.30;0.20;;;;;;;23.60;46.71;102155.03;5002473;28;20406;-74
2023/07/10 08:44:43;;;;;;;0.40;0.30;;;;;;;23.63;45.97;102160.22;5002216;28;21147;-72
2023/07/10 08:47:18;;;;;;;0.45;0.30;;;;;;;23.62;45.91;102158.47;5000015;28;20112;-73
2023/07/10 08:49:54;;;;;;;0.20;0.20;;;;;;;23.61;45.27;102156.75;5000141;28;20060;-72
2023/07/10 08:52:33;;;;;;;0.30;0.30;;;;;;;23.62;45.89;102151.34;4997088;28;20053;-72
2023/07/10 08:55:00;;;;;;;0.40;0.30;;;;;;;23.63;45.52;102154.88;5003468;28;20498;-73
2023/07/10 08:57:32;;;;;;;0.40;0.35;;;;;;;23.65;45.52;102153.88;4999087;28;20061;-72
2023/07/10 09:00:04;;;;;;;2.42;1.05;;;;;;;23.67;45.27;102151.09;4994256;28;20046;-73
2023/07/10 09:02:39;;;;;;;0.40;0.40;;;;;;;23.65;45.18;102147.66;4996029;28;20134;-72
2023/07/10 09:05:08;;;;;;;0.57;0.30;;;;;;;23.67;45.42;102141.28;5002262;28;20057;-74
2023/07/10 09:07:42;;;;;;;0.30;0.30;;;;;;;23.70;45.05;102145.59;4998670;28;20046;-74
2023/07/10 09:10:16;;;;;;;0.30;0.20;;;;;;;23.73;45.03;102148.16;4999659;28;20060;-73
2023/07/10 09:12:47;;;;;;;1.45;0.30;;;;;;;23.74;44.50;102144.56;4996499;28;20042;-75
2023/07/10 09:15:16;;;;;;;1.13;0.30;;;;;;;23.76;44.55;102156.00;4999906;28;20046;-74
2023/07/10 09:17:56;;;;;;;0.30;0.30;;;;;;;23.73;44.47;102135.66;4996939;28;20061;-74
2023/07/10 09:20:24;;;;;;;0.50;0.30;;;;;;;23.78;43.50;102148.78;5001319;28;20076;-74
2023/07/10 09:22:55;;;;;;;0.40;0.40;;;;;;;23.81;42.68;102145.09;4998566;28;20041;-74
2023/07/10 09:25:23;;;;;;;1.55;0.30;;;;;;;23.82;43.18;102150.31;5000070;28;20038;-74
2023/07/10 09:27:58;;;;;;;0.45;0.40;;;;;;;23.85;42.51;102147.53;5000771;28;20042;-74
2023/07/10 09:30:40;;;;;;;;;;;;;;;23.86;43.58;102140.38;5003183;28;20100;-73
2023/07/10 09:33:10;;;;;;;0.80;0.32;;;;;;;23.85;42.71;102144.84;5006541;28;19932;-74
2023/07/10 09:35:40;;;;;;;0.93;0.30;;;;;;;23.88;43.24;102151.81;4998496;28;20052;-74
2023/07/10 09:38:11;;;;;;;0.63;0.40;;;;;;;23.88;42.99;102142.03;5004660;28;20046;-74
2023/07/10 09:40:41;;;;;;;0.20;0.20;;;;;;;23.89;42.36;102138.41;5000910;28;20422;-74
2023/07/10 09:43:14;;;;;;;0.40;0.30;;;;;;;23.89;42.02;102138.41;4997781;28;20077;-73
2023/07/10 09:45:44;;;;;;;0.30;0.30;;;;;;;23.90;42.46;102136.59;4995555;28;20049;-73
2023/07/10 09:48:16;;;;;;;1.55;0.30;;;;;;;23.90;42.92;102133.91;5004335;28;20046;-73
2023/07/10 09:50:49;;;;;;;0.52;0.30;;;;;;;23.90;42.37;102137.44;5005212;28;20057;-74
2023/07/10 09:53:29;;;;;;;1.73;0.25;;;;;;;23.90;42.37;102150.78;4998481;28;20053;-74
2023/07/10 09:55:56;;;;;;;0.57;0.32;;;;;;;23.89;42.50;102146.41;5000883;28;20432;-73
2023/07/10 09:58:24;;;;;;;0.50;0.43;;;;;;;23.89;42.12;102141.06;4997101;28;20068;-74
2023/07/10 10:00:51;;;;;;;0.40;0.40;;;;;;;23.87;41.66;102150.94;4999054;28;20494;-73
2023/07/10 10:03:27;;;;;;;0.35;0.30;;;;;;;23.87;42.21;102150.94;5003886;28;20050;-73
2023/07/10 10:05:55;;;;;;;2.28;0.30;;;;;;;23.87;43.03;102140.28;5005412;28;20052;-73
2023/07/10 10:08:26;;;;;;;0.60;0.30;;;;;;;23.87;42.53;102139.41;4998585;28;20060;-73
2023/07/10 10:11:05;;;;;;;0.30;0.30;;;;;;;23.88;42.74;102147.38;5004284;28;20541;-74
2023/07/10 10:13:38;;;;;;;0.40;0.30;;;;;;;23.79;41.97;102139.81;5002011;28;20060;-74
2023/07/10 10:16:09;;;;;;;1.52;0.38;;;;;;;23.74;42.29;102140.06;5000450;28;20049;-74
2023/07/10 10:18:45;;;;;;;1.20;0.38;;;;;;;23.71;42.56;102139.38;5004159;28;20051;-74
2023/07/10 10:21:15;;;;;;;0.47;0.40;;;;;;;23.66;42.81;102134.25;5002611;28;20038;-73
2023/07/10 10:23:45;;;;;;;0.50;0.38;;;;;;;23.62;42.94;102134.47;5003879;28;20053;-74
2023/07/10 10:26:36;;;;;;;0.40;0.38;;;;;;;23.58;43.09;102134.63;5001686;28;20049;-74
2023/07/10 10:29:17;;;;;;;0.50;0.40;;;;;;;23.56;42.78;102135.66;5000087;28;20050;-74
2023/07/10 10:31:53;;;;;;;0.60;0.55;;;;;;;23.48;42.50;102125.41;5006536;28;20046;-74
2023/07/10 10:34:33;;;;;;;0.45;0.40;;;;;;;23.49;42.82;102135.13;5000930;28;20048;-74
2023/07/10 10:37:20;;;;;;;0.50;0.30;;;;;;;23.47;42.99;102115.66;4997007;28;20050;-74
2023/07/10 10:39:57;;;;;;;0.32;0.25;;;;;;;23.48;42.55;102120.06;5005809;28;20059;-74
2023/07/10 10:42:30;;;;;;;0.30;0.30;;;;;;;23.47;42.62;102123.66;5000235;28;20069;-76
2023/07/10 10:45:10;;;;;;;1.13;0.50;;;;;;;23.47;42.88;102118.31;5001602;28;20045;-76
2023/07/10 10:47:45;;;;;;;3.22;0.40;;;;;;;23.47;43.30;102112.97;5003881;28;20061;-76
2023/07/10 10:50:44;;;;;;;1.58;0.40;;;;;;;23.47;43.01;102115.66;4998598;28;20042;-76
2023/07/10 10:53:32;;;;;;;0.45;0.35;;;;;;;23.45;43.15;102104.22;4999300;28;20486;-77
2023/07/10 10:56:10;;;;;;;0.65;0.40;;;;;;;23.43;42.78;102102.56;4999693;28;20066;-78
2023/07/10 10:58:51;;;;;;;0.68;0.30;;;;;;;23.40;42.56;102106.25;5001746;28;20057;-75
2023/07/10 11:01:35;;;;;;;0.30;0.30;;;;;;;23.38;42.37;102105.47;4987514;28;20056;-76
2023/07/10 11:04:13;;;;;;;1.50;0.40;;;;;;;23.33;42.56;102100.34;5004063;28;20044;-76
2023/07/10 11:06:47;;;;;;;0.30;0.30;;;;;;;23.29;41.63;102097.94;4995850;28;20049;-76
2023/07/10 11:09:18;;;;;;;1.00;0.37;;;;;;;23.25;41.37;102096.34;5000545;28;20137;-76
2023/07/10 11:11:45;;;;;;;0.90;0.30;;;;;;;23.20;41.27;102101.09;5002562;28;20683;-76
2023/07/10 11:14:13;;;;;;;0.80;0.47;;;;;;;23.21;41.10;102089.47;5002998;28;20057;-76
2023/07/10 11:16:41;;;;;;;2.78;1.17;;;;;;;23.19;41.50;102102.00;5001063;28;20512;-77
2023/07/10 11:19:16;;;;;;;1.48;0.30;;;;;;;23.18;41.02;102101.16;5002251;28;20050;-76
2023/07/10 11:21:44;;;;;;;0.60;0.30;;;;;;;23.18;41.20;102100.28;5004342;28;20054;-76
2023/07/10 11:24:18;;;;;;;0.40;0.30;;;;;;;23.14;41.31;102094.25;4999306;28;20073;-76
2023/07/10 11:26:50;;;;;;;0.40;0.30;;;;;;;23.13;40.94;102095.19;5003545;28;20061;-76
2023/07/10 11:29:29;;;;;;;2.47;0.30;;;;;;;23.07;41.13;102099.00;4996174;28;20053;-76
2023/07/10 11:31:59;;;;;;;0.93;0.30;;;;;;;23.03;41.84;102097.44;5003111;28;20057;-76
2023/07/10 11:34:51;;;;;;;0.77;0.30;;;;;;;23.00;41.50;102099.41;5001895;28;20458;-76